Time;durP1;ratioP1;P1;durP2;ratioP2;P2;SDS_P1;SDS_P2;PMS_P1;PMS_P2;Temp;Humidity;BMP_temperature;BMP_pressure;BME280_temperature;BME280_humidity;BME280_pressure;Samples;Min_cycle;Max_cycle;Signal;HPM_P1;HPM_P2
2021/10/21 00:01:25;;;;;;;7.95;5.85;;;17.10;99.90;;;;;;5057359;28;20241;-72
2021/10/21 00:03:53;;;;;;;11.35;6.00;;;16.90;99.90;;;;;;5057519;28;20286;-72
2021/10/21 00:06:20;;;;;;;7.00;6.00;;;16.90;99.90;;;;;;5057137;28;20207;-72
2021/10/21 00:08:47;;;;;;;7.65;4.93;;;16.70;99.90;;;;;;5057021;28;20313;-72
2021/10/21 00:11:15;;;;;;;6.22;5.00;;;16.40;99.90;;;;;;5057008;28;20267;-72
2021/10/21 00:13:42;;;;;;;6.43;5.35;;;16.40;99.90;;;;;;5057245;28;20219;-72
2021/10/21 00:16:09;;;;;;;6.07;5.40;;;16.40;99.90;;;;;;5057325;28;20238;-72
2021/10/21 00:18:36;;;;;;;6.85;5.43;;;16.30;99.90;;;;;;5057156;28;20314;-73
2021/10/21 00:21:04;;;;;;;6.15;5.20;;;16.30;99.90;;;;;;5056942;28;20293;-72
2021/10/21 00:23:31;;;;;;;6.35;4.22;;;16.30;99.90;;;;;;5057227;28;20197;-72
2021/10/21 00:25:57;;;;;;;4.97;4.00;;;16.20;99.90;;;;;;5056994;28;20301;-72
2021/10/21 00:28:24;;;;;;;7.30;5.05;;;16.00;99.90;;;;;;5056602;28;20206;-72
2021/10/21 00:30:51;;;;;;;5.50;4.47;;;16.00;99.90;;;;;;5056683;28;20297;-72
2021/10/21 00:33:18;;;;;;;6.65;4.80;;;15.90;99.90;;;;;;5055827;28;20317;-71
2021/10/21 00:35:44;;;;;;;6.70;4.60;;;15.80;99.90;;;;;;5056304;28;20206;-71
2021/10/21 00:38:13;;;;;;;5.05;4.35;;;15.80;99.90;;;;;;5055741;28;20209;-72
2021/10/21 00:40:39;;;;;;;5.00;4.20;;;15.70;99.90;;;;;;5056371;28;20205;-72
2021/10/21 00:43:06;;;;;;;6.15;4.60;;;15.60;99.90;;;;;;5055882;28;20297;-71
2021/10/21 00:45:33;;;;;;;6.55;5.22;;;15.80;99.90;;;;;;5055919;28;20203;-72
2021/10/21 00:48:00;;;;;;;5.90;4.38;;;15.80;99.90;;;;;;5055917;28;20661;-72
2021/10/21 00:50:27;;;;;;;4.55;4.00;;;15.80;99.90;;;;;;5055822;28;20262;-72
2021/10/21 00:52:55;;;;;;;5.95;4.63;;;15.90;99.90;;;;;;5055661;28;20562;-72
2021/10/21 00:55:24;;;;;;;8.23;4.95;;;15.80;99.90;;;;;;5056313;28;20229;-72
2021/10/21 00:57:51;;;;;;;6.05;4.65;;;15.80;99.90;;;;;;5056271;28;20202;-72
2021/10/21 01:00:17;;;;;;;7.40;5.07;;;15.90;99.90;;;;;;5056265;28;20227;-72
2021/10/21 01:02:44;;;;;;;6.32;5.00;;;15.90;99.90;;;;;;5055067;28;20209;-72
2021/10/21 01:05:11;;;;;;;9.00;5.80;;;15.80;99.90;;;;;;5055885;28;20213;-72
2021/10/21 01:07:38;;;;;;;6.40;4.82;;;15.70;99.90;;;;;;5055764;28;20209;-72
2021/10/21 01:10:06;;;;;;;7.20;5.30;;;15.70;99.90;;;;;;5055532;28;20232;-72
2021/10/21 01:12:34;;;;;;;7.53;5.20;;;15.70;99.90;;;;;;5055036;28;20628;-72
2021/10/21 01:15:19;;;;;;;6.03;4.90;;;15.70;99.90;;;;;;5055333;28;20400;-72
2021/10/21 01:17:47;;;;;;;6.47;5.60;;;15.70;99.90;;;;;;5055581;28;20206;-72
2021/10/21 01:20:15;;;;;;;7.75;5.35;;;15.60;99.90;;;;;;5055175;28;20230;-72
2021/10/21 01:22:42;;;;;;;7.85;5.38;;;15.60;99.90;;;;;;5055121;28;20293;-72
2021/10/21 01:25:10;;;;;;;8.18;5.95;;;15.60;99.90;;;;;;5055202;28;20633;-72
2021/10/21 01:27:37;;;;;;;7.70;5.57;;;15.60;99.90;;;;;;5055359;28;20214;-72
2021/10/21 01:30:05;;;;;;;8.40;5.80;;;15.50;99.90;;;;;;5056101;28;20223;-72
2021/10/21 01:32:35;;;;;;;8.75;5.90;;;15.50;99.90;;;;;;5054993;28;20718;-72
2021/10/21 01:35:03;;;;;;;8.27;6.10;;;15.50;99.90;;;;;;5055345;28;20216;-73
2021/10/21 01:37:31;;;;;;;6.97;5.70;;;15.50;99.90;;;;;;5055331;28;20217;-73
2021/10/21 01:39:58;;;;;;;7.53;5.85;;;15.40;99.90;;;;;;5055209;28;20316;-73
2021/10/21 01:42:26;;;;;;;6.68;5.50;;;15.40;99.90;;;;;;5054812;28;20209;-72
2021/10/21 01:44:53;;;;;;;7.15;6.15;;;15.40;99.90;;;;;;5055017;28;20680;-73
2021/10/21 01:47:19;;;;;;;5.70;5.10;;;15.40;99.90;;;;;;5054875;28;20229;-73
2021/10/21 01:49:46;;;;;;;6.85;5.40;;;15.40;99.90;;;;;;5054840;28;20318;-73
2021/10/21 01:52:15;;;;;;;8.88;6.35;;;15.30;99.90;;;;;;5054225;28;20237;-72
2021/10/21 01:54:43;;;;;;;7.13;5.43;;;15.40;99.90;;;;;;5054713;28;20703;-72
2021/10/21 01:57:10;;;;;;;7.78;6.00;;;15.30;99.90;;;;;;5054803;28;20576;-72
2021/10/21 01:59:37;;;;;;;8.25;6.05;;;15.30;99.90;;;;;;5055128;28;20226;-72
2021/10/21 02:02:04;;;;;;;8.32;5.50;;;15.30;99.90;;;;;;5054264;28;20203;-72
2021/10/21 02:04:30;;;;;;;7.13;5.63;;;15.30;99.90;;;;;;5055022;28;20206;-72
2021/10/21 02:06:57;;;;;;;6.72;5.43;;;15.20;99.90;;;;;;5055123;28;20216;-73
2021/10/21 02:09:25;;;;;;;8.27;5.43;;;15.20;99.90;;;;;;5054631;28;20566;-72
2021/10/21 02:11:53;;;;;;;7.55;4.70;;;15.20;99.90;;;;;;5054270;28;20295;-72
2021/10/21 02:14:20;;;;;;;6.40;5.30;;;15.20;99.90;;;;;;5054331;28;20210;-73
2021/10/21 02:16:47;;;;;;;5.40;4.25;;;15.20;99.90;;;;;;5054464;28;20209;-72
2021/10/21 02:19:14;;;;;;;6.57;4.82;;;15.10;99.90;;;;;;5054234;28;20230;-73
2021/10/21 02:21:41;;;;;;;6.72;4.30;;;15.10;99.90;;;;;;5054227;28;20301;-71
2021/10/21 02:24:07;;;;;;;7.38;4.40;;;15.10;99.90;;;;;;5054085;28;20213;-73
2021/10/21 02:26:34;;;;;;;5.60;3.75;;;15.10;99.90;;;;;;5055126;28;20206;-72
2021/10/21 02:29:03;;;;;;;5.00;3.90;;;15.10;99.90;;;;;;5054006;28;20588;-72
2021/10/21 02:31:30;;;;;;;4.30;3.90;;;15.10;99.90;;;;;;5054318;28;20301;-72
2021/10/21 02:33:56;;;;;;;5.05;4.55;;;15.10;99.90;;;;;;5053621;28;20222;-72
2021/10/21 02:36:23;;;;;;;4.65;3.97;;;15.20;99.90;;;;;;5053984;28;20296;-72
2021/10/21 02:38:50;;;;;;;6.97;4.13;;;15.10;99.90;;;;;;5053835;28;20595;-72
2021/10/21 02:41:17;;;;;;;5.50;3.80;;;15.20;99.90;;;;;;5053607;28;20206;-72
2021/10/21 02:43:44;;;;;;;6.07;3.80;;;15.20;99.90;;;;;;5054685;28;20198;-72
2021/10/21 02:46:13;;;;;;;4.53;3.65;;;15.10;99.90;;;;;;5054569;28;20301;-72
2021/10/21 02:48:40;;;;;;;6.15;3.65;;;15.20;99.90;;;;;;5054290;28;20779;-72
2021/10/21 02:51:07;;;;;;;4.15;3.53;;;15.20;99.90;;;;;;5054313;28;20202;-72
2021/10/21 02:53:33;;;;;;;4.00;3.20;;;15.30;99.90;;;;;;5054321;28;20251;-72
2021/10/21 02:56:00;;;;;;;4.60;3.90;;;15.30;99.90;;;;;;5053964;28;20703;-73
2021/10/21 02:58:28;;;;;;;3.70;3.40;;;15.30;99.90;;;;;;5053863;28;20226;-72
2021/10/21 03:00:55;;;;;;;4.38;3.97;;;15.30;99.90;;;;;;5053757;28;20206;-72
2021/10/21 03:03:23;;;;;;;5.85;4.00;;;15.30;99.90;;;;;;5054093;28;20198;-72
2021/10/21 03:05:50;;;;;;;5.00;4.00;;;15.20;99.90;;;;;;5053791;28;20206;-72
2021/10/21 03:08:17;;;;;;;5.43;4.18;;;15.20;99.90;;;;;;5054144;28;20213;-73
2021/10/21 03:10:43;;;;;;;5.38;4.05;;;15.30;99.90;;;;;;5053910;28;20208;-73
2021/10/21 03:13:10;;;;;;;5.53;3.38;;;15.30;99.90;;;;;;5053054;28;20772;-72
2021/10/21 03:15:37;;;;;;;3.80;3.35;;;15.40;99.90;;;;;;5053843;28;20210;-73
2021/10/21 03:18:04;;;;;;;4.80;3.80;;;15.50;99.90;;;;;;5053638;28;20209;-72
2021/10/21 03:20:34;;;;;;;4.47;3.50;;;15.60;99.90;;;;;;5053415;28;20228;-72
2021/10/21 03:23:02;;;;;;;3.25;2.95;;;15.60;99.90;;;;;;5053512;28;20568;-72
2021/10/21 03:25:29;;;;;;;3.33;3.03;;;15.70;99.90;;;;;;5053883;28;20750;-72
2021/10/21 03:27:57;;;;;;;4.18;2.90;;;15.70;99.90;;;;;;5057278;28;20312;-72
2021/10/21 03:30:24;;;;;;;2.58;2.13;;;15.80;99.90;;;;;;5057349;28;20226;-72
2021/10/21 03:32:51;;;;;;;2.58;2.38;;;15.90;99.90;;;;;;5056652;28;20318;-72
2021/10/21 03:35:19;;;;;;;4.30;2.70;;;15.90;99.90;;;;;;5057123;28;20622;-72
2021/10/21 03:37:47;;;;;;;2.53;2.33;;;16.00;99.90;;;;;;5057115;28;20203;-72
2021/10/21 03:40:14;;;;;;;2.88;2.17;;;16.00;99.90;;;;;;5056791;28;20730;-72
2021/10/21 03:42:41;;;;;;;3.05;2.00;;;16.00;99.90;;;;;;5056780;28;20202;-72
2021/10/21 03:45:09;;;;;;;5.45;3.47;;;16.00;99.90;;;;;;5056951;28;20203;-72
2021/10/21 03:47:35;;;;;;;2.10;1.70;;;16.00;99.90;;;;;;5056839;28;20212;-72
2021/10/21 03:50:02;;;;;;;2.05;1.35;;;16.00;99.90;;;;;;5056767;28;20223;-72
2021/10/21 03:52:29;;;;;;;1.40;1.30;;;16.00;99.90;;;;;;5056819;28;20216;-72
2021/10/21 03:54:57;;;;;;;1.83;1.23;;;16.00;99.90;;;;;;5056945;28;20296;-72
2021/10/21 03:57:24;;;;;;;1.40;1.30;;;16.00;99.90;;;;;;5056788;28;20207;-72
2021/10/21 03:59:51;;;;;;;1.30;1.20;;;16.00;99.90;;;;;;5056389;28;20732;-72
2021/10/21 04:02:18;;;;;;;1.80;1.40;;;16.00;99.90;;;;;;5056453;28;20216;-72
2021/10/21 04:04:44;;;;;;;1.52;1.40;;;16.00;99.90;;;;;;5056466;28;20669;-72
2021/10/21 04:07:11;;;;;;;2.17;1.58;;;16.10;99.90;;;;;;5056583;28;20301;-71
2021/10/21 04:09:38;;;;;;;1.85;1.40;;;16.10;99.90;;;;;;5056647;28;20241;-72
2021/10/21 04:12:07;;;;;;;1.13;1.02;;;16.10;99.90;;;;;;5056338;28;20397;-72
2021/10/21 04:14:34;;;;;;;1.42;1.33;;;16.10;99.90;;;;;;5056505;28;20333;-71
2021/10/21 04:17:00;;;;;;;2.88;2.50;;;16.10;99.90;;;;;;5057344;28;20214;-72
2021/10/21 04:19:27;;;;;;;1.40;0.95;;;16.10;99.90;;;;;;5056697;28;20314;-72
2021/10/21 04:21:54;;;;;;;1.42;1.35;;;16.10;99.90;;;;;;5056367;28;20692;-72
2021/10/21 04:24:21;;;;;;;0.90;0.90;;;16.10;99.90;;;;;;5056658;28;20341;-73
2021/10/21 04:26:48;;;;;;;1.70;1.60;;;16.10;99.90;;;;;;5056612;28;20580;-72
2021/10/21 04:29:16;;;;;;;0.82;0.82;;;16.00;99.90;;;;;;5056381;28;20257;-72
2021/10/21 04:31:43;;;;;;;0.90;0.90;;;16.00;99.90;;;;;;5055913;28;20690;-72
2021/10/21 04:34:09;;;;;;;2.25;0.70;;;16.00;99.90;;;;;;5056202;28;20326;-72
2021/10/21 04:36:36;;;;;;;0.93;0.77;;;16.00;99.90;;;;;;5055715;28;20743;-72
2021/10/21 04:39:03;;;;;;;1.20;0.90;;;16.00;99.90;;;;;;5055592;28;20314;-72
2021/10/21 04:41:30;;;;;;;0.82;0.82;;;16.00;99.90;;;;;;5056112;28;20214;-71
2021/10/21 04:43:57;;;;;;;0.73;0.60;;;16.00;99.90;;;;;;5056133;28;20298;-71
2021/10/21 04:46:25;;;;;;;0.50;0.50;;;16.00;99.90;;;;;;5055924;28;20233;-71
2021/10/21 04:48:52;;;;;;;1.52;0.90;;;15.90;99.90;;;;;;5056088;28;20314;-71
2021/10/21 04:51:19;;;;;;;0.70;0.45;;;15.90;99.90;;;;;;5055980;28;20575;-72
2021/10/21 04:53:46;;;;;;;0.80;0.80;;;15.80;99.90;;;;;;5055800;28;20226;-73
2021/10/21 04:56:12;;;;;;;1.85;0.70;;;15.80;99.90;;;;;;5055714;28;20257;-73
2021/10/21 04:58:39;;;;;;;0.70;0.70;;;15.80;99.90;;;;;;5055610;28;20219;-73
2021/10/21 05:01:06;;;;;;;4.63;2.28;;;15.70;99.90;;;;;;5055540;28;20330;-72
2021/10/21 05:03:34;;;;;;;2.60;1.10;;;15.60;99.90;;;;;;5056027;28;20226;-72
2021/10/21 05:06:01;;;;;;;1.25;0.60;;;15.50;99.90;;;;;;5055818;28;20202;-72
2021/10/21 05:08:28;;;;;;;1.73;0.70;;;15.40;99.90;;;;;;5055741;28;20309;-72
2021/10/21 05:10:55;;;;;;;1.42;0.70;;;15.40;99.90;;;;;;5055779;28;20300;-72
2021/10/21 05:13:22;;;;;;;0.50;0.40;;;15.30;99.90;;;;;;5055401;28;20225;-72
2021/10/21 05:15:48;;;;;;;1.58;0.68;;;15.30;99.90;;;;;;5055299;28;20212;-72
2021/10/21 05:18:16;;;;;;;0.47;0.47;;;15.30;99.90;;;;;;5055362;28;20293;-72
2021/10/21 05:20:44;;;;;;;0.88;0.40;;;15.30;99.90;;;;;;5055186;28;20214;-72
2021/10/21 05:23:11;;;;;;;3.83;1.52;;;15.30;99.90;;;;;;5055282;28;20294;-72
2021/10/21 05:25:38;;;;;;;2.40;0.98;;;15.20;99.90;;;;;;5054838;28;20328;-72
2021/10/21 05:28:05;;;;;;;1.35;0.68;;;15.30;99.90;;;;;;5055680;28;20213;-72
2021/10/21 05:30:32;;;;;;;1.40;0.60;;;15.20;99.90;;;;;;5055355;28;20317;-72
2021/10/21 05:33:01;;;;;;;0.52;0.45;;;15.20;99.90;;;;;;5055481;28;20209;-72
2021/10/21 05:35:28;;;;;;;0.93;0.70;;;15.10;99.70;;;;;;5055174;28;20309;-72
2021/10/21 05:37:56;;;;;;;0.63;0.40;;;15.10;99.80;;;;;;5055213;28;20546;-71
2021/10/21 05:40:23;;;;;;;1.15;0.60;;;15.10;99.40;;;;;;5054545;28;20317;-72
2021/10/21 05:42:50;;;;;;;1.98;0.73;;;15.10;99.90;;;;;;5054690;28;20212;-72
2021/10/21 05:45:17;;;;;;;1.77;0.80;;;15.10;99.80;;;;;;5055091;28;20201;-72
2021/10/21 05:47:44;;;;;;;2.92;1.48;;;15.10;99.60;;;;;;5054984;28;20627;-72
2021/10/21 05:50:11;;;;;;;0.95;0.50;;;15.10;99.90;;;;;;5054504;28;20226;-71
2021/10/21 05:52:39;;;;;;;3.30;0.63;;;15.00;99.90;;;;;;5055030;28;20206;-71
2021/10/21 05:55:09;;;;;;;1.15;0.50;;;15.00;99.90;;;;;;5055510;28;20226;-72
2021/10/21 05:57:36;;;;;;;1.30;0.60;;;15.00;99.90;;;;;;5056046;28;20211;-72
2021/10/21 06:00:03;;;;;;;2.85;0.60;;;15.00;99.90;;;;;;5055874;28;20226;-72
2021/10/21 06:02:30;;;;;;;1.58;0.55;;;14.90;99.90;;;;;;5055174;28;20201;-71
2021/10/21 06:04:57;;;;;;;0.85;0.63;;;14.90;99.90;;;;;;5054867;28;20209;-71
2021/10/21 06:07:23;;;;;;;4.20;0.80;;;14.90;99.90;;;;;;5054387;28;20572;-71
2021/10/21 06:09:56;;;;;;;1.83;0.70;;;14.90;99.90;;;;;;5054259;28;20321;-71
2021/10/21 06:12:24;;;;;;;2.90;0.65;;;14.90;99.60;;;;;;5053933;28;20255;-72
2021/10/21 06:14:51;;;;;;;1.13;0.52;;;14.90;99.60;;;;;;5054307;28;20226;-71
2021/10/21 06:17:18;;;;;;;4.50;1.75;;;14.80;99.10;;;;;;5054755;28;20217;-72
2021/10/21 06:19:45;;;;;;;1.95;0.68;;;14.80;99.30;;;;;;5054404;28;20282;-72
2021/10/21 06:22:14;;;;;;;0.82;0.50;;;14.80;99.30;;;;;;5054236;28;20208;-71
2021/10/21 06:24:40;;;;;;;1.27;0.70;;;14.90;99.40;;;;;;5054040;28;20212;-71
2021/10/21 06:27:07;;;;;;;1.75;0.55;;;14.90;99.60;;;;;;5054366;28;20260;-73
2021/10/21 06:29:36;;;;;;;2.50;1.05;;;14.80;98.70;;;;;;5051203;28;20304;-72
2021/10/21 06:32:04;;;;;;;1.60;0.80;;;14.80;98.40;;;;;;5054792;28;20210;-73
2021/10/21 06:34:31;;;;;;;1.38;0.50;;;14.90;98.60;;;;;;5052692;28;20288;-73
2021/10/21 06:36:58;;;;;;;1.73;0.93;;;14.90;98.90;;;;;;5053105;28;20287;-73
2021/10/21 06:39:25;;;;;;;2.45;0.82;;;14.80;97.70;;;;;;5052838;28;20265;-73
2021/10/21 06:41:52;;;;;;;4.82;0.60;;;14.90;98.10;;;;;;5053371;28;20205;-73
2021/10/21 06:44:18;;;;;;;2.47;0.60;;;14.80;97.50;;;;;;5053313;28;20305;-74
2021/10/21 06:46:47;;;;;;;1.02;0.60;;;14.80;97.50;;;;;;5055116;28;20245;-73
2021/10/21 06:49:14;;;;;;;1.42;0.60;;;14.80;97.20;;;;;;5053221;28;20260;-74
2021/10/21 06:51:41;;;;;;;2.78;0.75;;;14.80;97.80;;;;;;5052224;28;20217;-74
2021/10/21 06:54:07;;;;;;;2.47;0.60;;;14.80;97.50;;;;;;5051944;28;20222;-72
2021/10/21 06:56:34;;;;;;;0.75;0.57;;;14.80;97.00;;;;;;5052257;28;20234;-73
2021/10/21 06:59:02;;;;;;;0.73;0.73;;;14.70;97.20;;;;;;5052321;28;20231;-72
2021/10/21 07:01:28;;;;;;;0.65;0.57;;;14.80;96.70;;;;;;5053432;28;20293;-72
2021/10/21 07:04:00;;;;;;;2.10;0.57;;;14.80;96.50;;;;;;5055564;28;20198;-72
2021/10/21 07:06:27;;;;;;;0.50;0.40;;;14.80;96.70;;;;;;5054779;28;20209;-71
2021/10/21 07:08:54;;;;;;;0.55;0.40;;;14.80;96.50;;;;;;5054404;28;20723;-71
2021/10/21 07:11:21;;;;;;;2.15;0.68;;;14.90;95.80;;;;;;5054033;28;20212;-71
2021/10/21 07:13:48;;;;;;;2.65;0.65;;;14.90;95.70;;;;;;5053340;28;20243;-70
2021/10/21 07:16:14;;;;;;;1.80;0.77;;;14.90;96.00;;;;;;5053430;28;20397;-70
2021/10/21 07:18:41;;;;;;;0.60;0.60;;;14.90;95.80;;;;;;5053424;28;20709;-70
2021/10/21 07:21:10;;;;;;;0.95;0.75;;;14.90;96.10;;;;;;5053511;28;20299;-70
2021/10/21 07:23:37;;;;;;;2.33;1.02;;;15.00;96.10;;;;;;5053243;28;20207;-71
2021/10/21 07:26:04;;;;;;;0.40;0.38;;;14.90;95.90;;;;;;5053423;28;20623;-70
2021/10/21 07:28:31;;;;;;;1.02;0.47;;;14.90;96.00;;;;;;5054048;28;20212;-70
2021/10/21 07:30:58;;;;;;;2.20;0.40;;;14.90;95.80;;;;;;5053858;28;20289;-72
2021/10/21 07:33:25;;;;;;;1.73;0.70;;;14.90;95.90;;;;;;5054239;28;20293;-71
2021/10/21 07:35:52;;;;;;;3.83;0.93;;;15.00;95.90;;;;;;5053823;28;20221;-71
2021/10/21 07:38:20;;;;;;;3.72;0.90;;;15.00;95.20;;;;;;5053783;28;20229;-71
2021/10/21 07:40:47;;;;;;;1.33;0.52;;;15.10;95.30;;;;;;5053954;28;20210;-71
2021/10/21 07:43:15;;;;;;;1.90;0.50;;;15.20;95.20;;;;;;5053380;28;20628;-70
2021/10/21 07:45:42;;;;;;;2.88;0.90;;;15.30;95.40;;;;;;5053661;28;20199;-71
2021/10/21 07:48:09;;;;;;;1.88;0.65;;;15.30;95.30;;;;;;5053630;28;20685;-70
2021/10/21 07:50:37;;;;;;;0.40;0.40;;;15.30;95.50;;;;;;5053657;28;20321;-70
2021/10/21 07:53:05;;;;;;;1.38;0.43;;;15.30;95.20;;;;;;5053420;28;20293;-70
2021/10/21 07:55:33;;;;;;;0.43;0.40;;;15.40;94.60;;;;;;5053647;28;20221;-70
2021/10/21 07:58:00;;;;;;;1.17;0.30;;;15.40;94.50;;;;;;5053720;28;20214;-70
2021/10/21 08:00:27;;;;;;;2.45;0.50;;;15.40;94.40;;;;;;5053837;28;20233;-70
2021/10/21 08:02:54;;;;;;;0.40;0.30;;;15.40;94.00;;;;;;5052863;28;20669;-70
2021/10/21 08:05:21;;;;;;;1.13;0.40;;;15.40;94.30;;;;;;5053211;28;20665;-70
2021/10/21 08:07:48;;;;;;;4.00;1.20;;;15.40;94.10;;;;;;5053334;28;20213;-70
2021/10/21 08:10:17;;;;;;;2.33;1.30;;;15.30;93.70;;;;;;5053260;28;20223;-70
2021/10/21 08:12:46;;;;;;;0.50;0.30;;;15.30;93.90;;;;;;5055733;28;20217;-70
2021/10/21 08:15:14;;;;;;;1.55;0.40;;;15.30;94.20;;;;;;5056648;28;20226;-70
2021/10/21 08:17:43;;;;;;;0.95;0.43;;;15.20;93.80;;;;;;5056500;28;20214;-70
2021/10/21 08:20:12;;;;;;;1.15;0.50;;;15.20;93.70;;;;;;5056310;28;20233;-70
2021/10/21 08:22:40;;;;;;;1.67;0.45;;;15.20;93.10;;;;;;5056507;28;20209;-70
2021/10/21 08:25:07;;;;;;;0.75;0.32;;;15.20;93.90;;;;;;5056482;28;20690;-70
2021/10/21 08:27:34;;;;;;;0.88;0.60;;;15.10;93.50;;;;;;5056640;28;20289;-70
2021/10/21 08:30:03;;;;;;;0.45;0.30;;;15.20;93.40;;;;;;5056460;28;20704;-70
2021/10/21 08:32:30;;;;;;;0.30;0.30;;;15.20;93.30;;;;;;5056110;28;20306;-70
2021/10/21 08:34:56;;;;;;;0.40;0.40;;;15.30;93.40;;;;;;5056297;28;20636;-70
2021/10/21 08:37:23;;;;;;;2.25;0.30;;;15.30;93.60;;;;;;5056563;28;20302;-70
2021/10/21 08:39:50;;;;;;;0.50;0.50;;;15.30;92.90;;;;;;5055855;28;20712;-70
2021/10/21 08:42:19;;;;;;;1.08;0.38;;;15.30;93.50;;;;;;5056111;28;20206;-70
2021/10/21 08:44:46;;;;;;;3.33;1.50;;;15.30;92.90;;;;;;5055944;28;20202;-70
2021/10/21 08:47:19;;;;;;;1.77;0.55;;;15.30;93.10;;;;;;5055755;28;20660;-70
2021/10/21 08:49:47;;;;;;;0.50;0.50;;;15.20;93.40;;;;;;5055597;28;20229;-70
2021/10/21 08:52:15;;;;;;;1.80;0.52;;;15.20;93.30;;;;;;5055958;28;20213;-70
2021/10/21 08:54:42;;;;;;;1.65;0.50;;;15.20;94.00;;;;;;5056317;28;20577;-70
2021/10/21 08:57:11;;;;;;;1.13;0.40;;;15.20;94.00;;;;;;5056121;28;20628;-70
2021/10/21 08:59:39;;;;;;;0.68;0.30;;;15.30;94.20;;;;;;5056120;28;20226;-70
2021/10/21 09:02:13;;;;;;;0.40;0.40;;;15.20;94.80;;;;;;5055650;28;20242;-70
2021/10/21 09:04:54;;;;;;;1.58;0.30;;;15.00;95.20;;;;;;5055738;28;20191;-70
2021/10/21 09:10:09;;;;;;;1.70;0.30;;;14.50;96.10;;;;;;5055979;28;20301;-70
2021/10/21 09:12:41;;;;;;;0.40;0.20;;;14.40;97.10;;;;;;5055522;28;20350;-70
2021/10/21 09:15:10;;;;;;;1.73;0.30;;;14.20;97.20;;;;;;5055940;28;20229;-70
2021/10/21 09:17:37;;;;;;;0.82;0.40;;;14.10;97.60;;;;;;5055678;28;20210;-70
2021/10/21 09:20:39;;;;;;;0.40;0.20;;;14.10;97.30;;;;;;5056064;28;20238;-70
2021/10/21 09:23:12;;;;;;;1.15;0.20;;;14.10;97.50;;;;;;5047906;28;20210;-70
2021/10/21 09:25:40;;;;;;;0.38;0.20;;;14.20;97.10;;;;;;5055315;28;20219;-71
2021/10/21 09:28:23;;;;;;;0.85;0.35;;;14.10;97.40;;;;;;5055488;28;20211;-70
2021/10/21 09:30:53;;;;;;;0.93;0.35;;;14.10;97.30;;;;;;5053887;28;20235;-69
2021/10/21 09:33:19;;;;;;;0.30;0.30;;;14.10;97.40;;;;;;5055439;28;20288;-70
2021/10/21 09:35:58;;;;;;;0.40;0.30;;;14.10;97.90;;;;;;5055326;28;20650;-70
2021/10/21 09:38:31;;;;;;;0.40;0.20;;;14.20;97.70;;;;;;5055490;28;20256;-71
2021/10/21 09:41:05;;;;;;;1.13;0.30;;;14.20;97.80;;;;;;5055641;28;20188;-70
2021/10/21 09:43:34;;;;;;;0.45;0.28;;;14.20;98.00;;;;;;5055144;28;20200;-71
2021/10/21 09:46:01;;;;;;;0.40;0.40;;;14.20;98.40;;;;;;5054755;28;20259;-70
2021/10/21 09:48:28;;;;;;;0.50;0.40;;;14.20;98.30;;;;;;5054583;28;20204;-70
2021/10/21 09:50:55;;;;;;;0.70;0.40;;;14.20;98.40;;;;;;5054627;28;20295;-70
2021/10/21 09:53:23;;;;;;;0.90;0.38;;;14.20;98.30;;;;;;5054458;28;20201;-70
2021/10/21 09:55:53;;;;;;;0.57;0.30;;;14.30;98.10;;;;;;5054385;28;20580;-70
2021/10/21 09:58:23;;;;;;;0.30;0.25;;;14.30;97.20;;;;;;5054312;28;20220;-70
2021/10/21 10:00:50;;;;;;;0.30;0.30;;;14.20;95.70;;;;;;5054774;28;20205;-70
2021/10/21 10:03:19;;;;;;;0.68;0.30;;;14.20;95.50;;;;;;5054207;28;20208;-70
2021/10/21 10:05:48;;;;;;;0.40;0.30;;;14.10;94.50;;;;;;5054118;28;20206;-69
2021/10/21 10:08:16;;;;;;;0.40;0.30;;;14.00;93.90;;;;;;5054364;28;20212;-70
2021/10/21 10:10:45;;;;;;;3.28;0.43;;;14.00;94.20;;;;;;5054694;28;20679;-69
2021/10/21 10:13:15;;;;;;;1.15;0.40;;;14.00;93.90;;;;;;5054287;28;20611;-70
2021/10/21 10:15:45;;;;;;;0.40;0.30;;;13.90;93.70;;;;;;5054409;28;20255;-70
2021/10/21 10:18:16;;;;;;;1.25;0.40;;;13.90;94.10;;;;;;5054401;28;20209;-70
2021/10/21 10:20:45;;;;;;;0.63;0.30;;;14.00;93.80;;;;;;5054554;28;20598;-70
2021/10/21 10:23:14;;;;;;;0.50;0.40;;;14.10;92.40;;;;;;5054419;28;20291;-70
2021/10/21 10:25:48;;;;;;;2.15;0.30;;;14.00;92.10;;;;;;5054594;28;20218;-70
2021/10/21 10:28:17;;;;;;;0.50;0.50;;;14.00;91.80;;;;;;5054962;28;20207;-70
2021/10/21 10:30:49;;;;;;;0.35;0.35;;;14.00;91.20;;;;;;5054326;28;20298;-70
2021/10/21 10:33:38;;;;;;;0.50;0.50;;;14.00;91.60;;;;;;5053792;28;20203;-70
2021/10/21 10:36:28;;;;;;;1.05;0.40;;;14.10;91.80;;;;;;5052839;28;20253;-70
2021/10/21 10:38:57;;;;;;;0.40;0.40;;;14.10;91.20;;;;;;5053863;28;20221;-70
2021/10/21 10:41:47;;;;;;;0.88;0.50;;;14.10;91.50;;;;;;5053924;28;20295;-70
2021/10/21 10:44:55;;;;;;;0.85;0.50;;;14.10;91.20;;;;;;5054250;28;20200;-70
2021/10/21 10:47:46;;;;;;;0.95;0.30;;;14.20;90.80;;;;;;5053482;28;20239;-70
2021/10/21 10:50:38;;;;;;;2.75;0.60;;;14.40;91.50;;;;;;5053691;28;20256;-71
2021/10/21 10:53:07;;;;;;;0.60;0.50;;;14.60;91.80;;;;;;5053469;28;20200;-70
2021/10/21 10:55:39;;;;;;;0.60;0.50;;;14.70;91.70;;;;;;5053767;28;20274;-70
2021/10/21 10:58:06;;;;;;;0.68;0.60;;;14.90;92.10;;;;;;5053625;28;20637;-71
2021/10/21 11:00:54;;;;;;;1.75;0.60;;;15.00;92.20;;;;;;5053605;28;20652;-70
2021/10/21 11:03:35;;;;;;;0.50;0.50;;;15.10;91.90;;;;;;5053525;28;20287;-70
2021/10/21 11:06:03;;;;;;;0.60;0.60;;;15.20;91.50;;;;;;5053621;28;20602;-70
2021/10/21 11:08:53;;;;;;;0.77;0.57;;;15.20;91.60;;;;;;5053392;28;20292;-70
2021/10/21 11:11:47;;;;;;;0.82;0.50;;;15.20;92.20;;;;;;5053388;28;20239;-70
2021/10/21 11:14:15;;;;;;;0.95;0.82;;;15.10;92.20;;;;;;5053429;28;20312;-70
2021/10/21 11:16:53;;;;;;;1.40;1.30;;;15.20;93.00;;;;;;5053020;28;20240;-70
2021/10/21 11:19:53;;;;;;;1.83;1.60;;;15.20;92.30;;;;;;5053369;28;20257;-70
2021/10/21 11:22:41;;;;;;;1.23;0.50;;;15.30;90.50;;;;;;5053214;28;20202;-70
2021/10/21 11:25:12;;;;;;;0.40;0.40;;;15.30;90.90;;;;;;5048664;28;20244;-70
2021/10/21 11:27:42;;;;;;;0.73;0.55;;;15.30;90.40;;;;;;5053309;28;20690;-70
2021/10/21 11:30:15;;;;;;;1.08;0.60;;;15.30;90.40;;;;;;5053420;28;20228;-70
2021/10/21 11:32:44;;;;;;;1.15;0.40;;;15.20;90.40;;;;;;5053642;28;20198;-70
2021/10/21 11:35:14;;;;;;;1.40;0.57;;;15.10;89.40;;;;;;5053813;28;20328;-70
2021/10/21 11:37:44;;;;;;;0.73;0.70;;;15.10;87.30;;;;;;5053707;28;20210;-70
2021/10/21 11:40:16;;;;;;;0.60;0.60;;;15.10;87.30;;;;;;5053799;28;20282;-71
2021/10/21 11:42:51;;;;;;;0.55;0.50;;;15.20;88.80;;;;;;5053759;28;20216;-70
2021/10/21 11:45:18;;;;;;;0.40;0.40;;;15.30;87.90;;;;;;5053864;28;20202;-70
2021/10/21 11:47:54;;;;;;;0.50;0.50;;;15.30;87.30;;;;;;5056413;28;20217;-70
2021/10/21 11:50:31;;;;;;;1.15;0.50;;;15.30;86.90;;;;;;5057713;28;20235;-70
2021/10/21 11:52:59;;;;;;;3.10;0.70;;;15.40;87.60;;;;;;5057193;28;20636;-70
2021/10/21 11:55:27;;;;;;;0.60;0.40;;;15.70;85.50;;;;;;5056958;28;20235;-70
2021/10/21 11:57:54;;;;;;;1.13;0.60;;;15.70;85.20;;;;;;5057071;28;20241;-70
2021/10/21 12:00:23;;;;;;;1.42;0.73;;;15.70;84.90;;;;;;5057014;28;20227;-70
2021/10/21 12:02:55;;;;;;;0.40;0.40;;;15.70;84.30;;;;;;5057115;28;20564;-70
2021/10/21 12:05:26;;;;;;;0.52;0.52;;;15.50;83.90;;;;;;5057361;28;20292;-70
2021/10/21 12:07:54;;;;;;;0.95;0.50;;;15.50;86.20;;;;;;5057357;28;20619;-70
2021/10/21 12:10:29;;;;;;;1.80;1.00;;;15.50;85.00;;;;;;5056927;28;20231;-71
2021/10/21 12:12:56;;;;;;;0.82;0.68;;;15.60;85.40;;;;;;5056868;28;20205;-70
2021/10/21 12:15:25;;;;;;;3.28;0.68;;;15.60;84.70;;;;;;5057088;28;20225;-70
2021/10/21 12:17:54;;;;;;;1.08;0.47;;;15.70;83.30;;;;;;5056664;28;20259;-70
2021/10/21 12:20:44;;;;;;;0.47;0.47;;;15.70;82.10;;;;;;5056624;28;20269;-70
2021/10/21 12:23:25;;;;;;;0.60;0.60;;;15.90;81.50;;;;;;5057066;28;20195;-70
2021/10/21 12:25:53;;;;;;;0.50;0.40;;;16.20;82.00;;;;;;5056803;28;20242;-70
2021/10/21 12:28:21;;;;;;;1.30;0.75;;;16.50;82.20;;;;;;5056277;28;20242;-70
2021/10/21 12:30:49;;;;;;;0.57;0.52;;;16.90;80.50;;;;;;5056379;28;20203;-70
2021/10/21 12:33:19;;;;;;;0.77;0.70;;;17.00;81.00;;;;;;5056555;28;20257;-71
2021/10/21 12:36:02;;;;;;;1.70;0.60;;;17.20;80.60;;;;;;5056288;28;20208;-70
2021/10/21 12:38:30;;;;;;;0.60;0.43;;;17.20;80.50;;;;;;5056258;28;20257;-70
2021/10/21 12:41:03;;;;;;;0.82;0.82;;;17.10;81.10;;;;;;5056434;28;20286;-70
2021/10/21 12:43:30;;;;;;;1.05;0.55;;;17.10;81.00;;;;;;5056108;28;20211;-70
2021/10/21 12:46:00;;;;;;;1.10;1.00;;;17.10;78.70;;;;;;5056062;28;20199;-70
2021/10/21 12:48:30;;;;;;;0.50;0.40;;;16.90;78.40;;;;;;5055959;28;20218;-70
2021/10/21 12:51:12;;;;;;;0.70;0.70;;;16.80;78.70;;;;;;5056166;28;20202;-69
2021/10/21 12:53:40;;;;;;;0.68;0.57;;;16.40;78.20;;;;;;5055967;28;20537;-70
2021/10/21 12:56:16;;;;;;;1.40;0.40;;;16.20;80.90;;;;;;5055482;28;20781;-70
2021/10/21 12:58:45;;;;;;;0.98;0.50;;;16.10;82.10;;;;;;5055064;28;20226;-70
2021/10/21 13:01:12;;;;;;;1.27;0.50;;;16.10;82.70;;;;;;5055747;28;20320;-69